Time;durP1;ratioP1;P1;durP2;ratioP2;P2;SDS_P1;SDS_P2;PMS_P1;PMS_P2;Temp;Humidity;BMP_temperature;BMP_pressure;BME280_temperature;BME280_humidity;BME280_pressure;Samples;Min_cycle;Max_cycle;Signal;HPM_P1;HPM_P2
2023/03/14 00:02:06;;;;;;;4.00;1.58;;;11.10;99.90;;;;;;4953594;28;20038;-80
2023/03/14 00:04:32;;;;;;;4.30;1.30;;;11.20;99.90;;;;;;4954272;28;20037;-80
2023/03/14 00:06:57;;;;;;;6.47;1.27;;;11.20;99.90;;;;;;4977461;28;20053;-81
2023/03/14 00:09:23;;;;;;;6.68;1.20;;;11.10;99.90;;;;;;4957156;28;20038;-82
2023/03/14 00:11:48;;;;;;;4.43;0.80;;;11.10;99.90;;;;;;4953845;28;20509;-81
2023/03/14 00:14:15;;;;;;;1.85;0.73;;;11.10;99.90;;;;;;4967262;28;20486;-81
2023/03/14 00:16:41;;;;;;;4.85;1.10;;;11.00;99.90;;;;;;4986946;28;20088;-81
2023/03/14 00:19:06;;;;;;;6.22;1.52;;;11.00;99.90;;;;;;4951885;28;20034;-81
2023/03/14 00:21:32;;;;;;;4.18;1.17;;;11.00;99.90;;;;;;4976969;28;20112;-81
2023/03/14 00:23:57;;;;;;;9.73;1.33;;;11.00;99.90;;;;;;4956633;28;20053;-81
2023/03/14 00:26:23;;;;;;;5.55;0.93;;;11.00;99.90;;;;;;4969640;28;20037;-80
2023/03/14 00:28:51;;;;;;;5.07;1.38;;;11.00;99.90;;;;;;4985750;28;20038;-80
2023/03/14 00:31:17;;;;;;;2.20;0.57;;;11.00;99.90;;;;;;4987790;28;20022;-80
2023/03/14 00:33:43;;;;;;;7.47;0.88;;;11.00;99.90;;;;;;4951261;28;20045;-80
2023/03/14 00:36:10;;;;;;;3.13;1.15;;;11.00;99.90;;;;;;4951579;28;20037;-80
2023/03/14 00:38:36;;;;;;;4.30;0.98;;;11.00;99.90;;;;;;4966501;28;20033;-80
2023/03/14 00:41:06;;;;;;;8.45;1.63;;;11.00;99.90;;;;;;4968176;28;20370;-81
2023/03/14 00:43:31;;;;;;;5.10;1.23;;;11.00;99.90;;;;;;4958870;28;20058;-80
2023/03/14 00:45:57;;;;;;;7.28;1.30;;;11.10;99.90;;;;;;4963844;28;20064;-80
2023/03/14 00:48:22;;;;;;;2.95;0.80;;;11.10;99.90;;;;;;4962672;28;20029;-81
2023/03/14 00:50:48;;;;;;;4.80;1.25;;;11.10;99.90;;;;;;4961775;28;20030;-83
2023/03/14 00:53:14;;;;;;;5.10;0.88;;;11.00;99.90;;;;;;4961589;28;20033;-84
2023/03/14 00:55:40;;;;;;;3.58;0.70;;;10.80;99.90;;;;;;4965788;28;20030;-84
2023/03/14 00:58:05;;;;;;;3.45;0.68;;;10.50;99.90;;;;;;4981412;28;20108;-84
2023/03/14 01:00:31;;;;;;;1.23;0.50;;;10.60;99.90;;;;;;4969276;28;20076;-84
2023/03/14 01:02:57;;;;;;;0.65;0.40;;;10.50;99.90;;;;;;4992300;28;20490;-85
2023/03/14 01:05:23;;;;;;;3.00;0.52;;;10.50;99.90;;;;;;4989356;28;20041;-85
2023/03/14 01:07:48;;;;;;;4.15;0.50;;;10.40;99.90;;;;;;4969225;28;20034;-84
2023/03/14 01:10:14;;;;;;;1.85;0.75;;;10.40;99.90;;;;;;5000323;28;20521;-84
2023/03/14 01:12:40;;;;;;;4.38;0.43;;;10.30;99.90;;;;;;4964481;28;20052;-83
2023/03/14 01:15:07;;;;;;;0.38;0.30;;;10.30;99.90;;;;;;4966344;28;20030;-83
2023/03/14 01:17:33;;;;;;;4.78;0.50;;;10.20;99.90;;;;;;4977291;28;20076;-82
2023/03/14 01:19:59;;;;;;;4.45;0.70;;;10.20;99.90;;;;;;5001435;28;20034;-84
2023/03/14 01:22:25;;;;;;;1.75;0.70;;;10.20;99.90;;;;;;5004580;28;20037;-83
2023/03/14 01:24:50;;;;;;;1.02;0.88;;;10.20;99.90;;;;;;4970140;28;20044;-84
2023/03/14 01:27:16;;;;;;;1.42;0.50;;;10.00;99.90;;;;;;4970116;28;20121;-85
2023/03/14 01:29:41;;;;;;;1.58;0.50;;;10.00;99.90;;;;;;5007187;28;20079;-86
2023/03/14 01:32:07;;;;;;;3.55;0.63;;;10.00;99.90;;;;;;4998159;28;20027;-84
2023/03/14 01:34:32;;;;;;;5.03;0.57;;;10.00;99.90;;;;;;4970545;28;20049;-82
2023/03/14 01:36:58;;;;;;;1.45;0.35;;;9.90;99.90;;;;;;4982313;28;20072;-83
2023/03/14 01:39:23;;;;;;;3.63;0.82;;;9.90;99.90;;;;;;4967488;28;20031;-84
2023/03/14 01:41:49;;;;;;;2.67;1.05;;;9.90;99.90;;;;;;4971239;28;20104;-85
2023/03/14 01:44:15;;;;;;;1.25;0.32;;;9.90;99.90;;;;;;4970116;28;20034;-85
2023/03/14 01:46:45;;;;;;;9.57;0.73;;;9.90;99.90;;;;;;4969549;28;20033;-84
2023/03/14 01:49:18;;;;;;;2.40;0.40;;;9.90;99.90;;;;;;4959371;28;20049;-85
2023/03/14 01:51:53;;;;;;;1.55;0.60;;;9.80;99.90;;;;;;4990370;28;20066;-85
2023/03/14 01:54:40;;;;;;;10.13;0.50;;;9.80;99.90;;;;;;5016102;28;20029;-85
2023/03/14 01:57:38;;;;;;;;;;;9.80;99.90;;;;;;4961015;28;20570;-85
2023/03/14 02:00:11;;;;;;;2.25;1.02;;;9.80;99.90;;;;;;4956465;28;20515;-84
2023/03/14 02:02:36;;;;;;;3.55;0.93;;;9.70;99.90;;;;;;4983540;28;20034;-82
2023/03/14 02:05:02;;;;;;;3.38;0.77;;;9.70;99.90;;;;;;4973011;28;20056;-81
2023/03/14 02:07:41;;;;;;;1.60;0.77;;;9.70;99.90;;;;;;4977246;28;20037;-82
2023/03/14 02:10:07;;;;;;;3.80;0.75;;;9.80;99.90;;;;;;4985660;28;20060;-82
2023/03/14 02:12:33;;;;;;;3.67;1.50;;;9.70;99.90;;;;;;4972624;28;20088;-81
2023/03/14 02:14:59;;;;;;;1.35;0.28;;;9.60;99.90;;;;;;4978650;28;20044;-81
2023/03/14 02:17:25;;;;;;;3.60;0.60;;;9.60;99.90;;;;;;4964129;28;20034;-82
2023/03/14 02:20:07;;;;;;;0.70;0.20;;;9.50;99.90;;;;;;4963499;28;20030;-82
2023/03/14 02:22:33;;;;;;;5.47;0.40;;;9.60;99.90;;;;;;4975052;28;20083;-81
2023/03/14 02:25:28;;;;;;;4.10;0.93;;;9.60;99.90;;;;;;4974359;28;20038;-81
2023/03/14 02:27:53;;;;;;;3.40;0.90;;;9.60;99.90;;;;;;5002237;28;20061;-82
2023/03/14 02:30:25;;;;;;;4.30;0.80;;;9.60;99.90;;;;;;4977853;28;20029;-82
2023/03/14 02:33:17;;;;;;;2.40;0.35;;;9.60;99.90;;;;;;4971262;28;20046;-82
2023/03/14 02:35:52;;;;;;;1.95;0.47;;;9.60;99.90;;;;;;4986611;28;20037;-83
2023/03/14 02:38:41;;;;;;;2.23;0.33;;;9.50;99.90;;;;;;4964989;28;20070;-82
2023/03/14 02:41:07;;;;;;;6.82;0.70;;;9.60;99.90;;;;;;4965466;28;20049;-81
2023/03/14 02:43:32;;;;;;;2.90;0.50;;;9.60;99.90;;;;;;4971825;28;20041;-82
2023/03/14 02:45:58;;;;;;;6.10;0.82;;;9.60;99.90;;;;;;4975710;28;20251;-82
2023/03/14 02:48:28;;;;;;;2.42;0.50;;;9.60;99.90;;;;;;4987588;28;20030;-81
2023/03/14 02:50:55;;;;;;;4.70;1.10;;;9.60;99.90;;;;;;4983224;28;20494;-81
2023/03/14 02:53:23;;;;;;;4.40;0.50;;;9.60;99.90;;;;;;4964038;28;20060;-81
2023/03/14 02:55:49;;;;;;;3.65;0.52;;;9.60;99.90;;;;;;4980649;28;20038;-82
2023/03/14 02:58:15;;;;;;;2.15;0.68;;;9.60;99.90;;;;;;4985009;28;20027;-81
2023/03/14 03:00:41;;;;;;;4.55;0.70;;;9.60;99.90;;;;;;4964003;28;20033;-81
2023/03/14 03:03:06;;;;;;;2.03;0.47;;;9.60;99.90;;;;;;4981099;28;20042;-81
2023/03/14 03:05:32;;;;;;;4.35;0.80;;;9.60;99.90;;;;;;4982789;28;20030;-80
2023/03/14 03:07:58;;;;;;;3.72;0.85;;;9.70;99.90;;;;;;4970250;28;20037;-81
2023/03/14 03:10:23;;;;;;;4.07;1.08;;;9.60;99.90;;;;;;4980178;28;20054;-80
2023/03/14 03:12:49;;;;;;;2.88;0.60;;;9.60;99.90;;;;;;4983628;28;20045;-80
2023/03/14 03:15:14;;;;;;;9.15;0.60;;;9.60;99.90;;;;;;4977936;28;20105;-81
2023/03/14 03:17:40;;;;;;;4.53;0.50;;;9.60;99.90;;;;;;4964851;28;20037;-80
2023/03/14 03:20:08;;;;;;;3.85;0.70;;;9.60;99.90;;;;;;4958203;28;20026;-80
2023/03/14 03:22:35;;;;;;;5.15;0.43;;;9.50;99.90;;;;;;4965373;28;20111;-79
2023/03/14 03:25:01;;;;;;;4.80;1.17;;;9.60;99.90;;;;;;4980210;28;20034;-80
2023/03/14 03:27:26;;;;;;;2.17;0.45;;;9.60;99.90;;;;;;4988781;28;20097;-81
2023/03/14 03:29:52;;;;;;;4.10;0.60;;;9.50;99.90;;;;;;5004030;28;20044;-81
2023/03/14 03:32:17;;;;;;;4.53;0.82;;;9.50;99.90;;;;;;4997032;28;20492;-81
2023/03/14 03:34:43;;;;;;;4.65;0.93;;;9.50;99.90;;;;;;4964581;28;20445;-80
2023/03/14 03:37:08;;;;;;;4.75;1.77;;;9.40;99.90;;;;;;4973733;28;20106;-80
2023/03/14 03:39:34;;;;;;;3.38;0.65;;;9.50;99.90;;;;;;4969386;28;20022;-80
2023/03/14 03:41:59;;;;;;;2.47;0.75;;;9.40;99.90;;;;;;4974116;28;20029;-81
2023/03/14 03:44:25;;;;;;;4.50;0.93;;;9.50;99.90;;;;;;4959760;28;20398;-80
2023/03/14 03:46:50;;;;;;;0.80;0.38;;;9.50;99.90;;;;;;4973567;28;20501;-81
2023/03/14 03:49:16;;;;;;;2.47;0.40;;;9.40;99.90;;;;;;4977452;28;20050;-78
2023/03/14 03:51:42;;;;;;;4.60;0.60;;;9.40;99.90;;;;;;4949585;28;20031;-78
2023/03/14 03:54:07;;;;;;;5.05;1.20;;;9.40;99.90;;;;;;4972087;28;20405;-78
2023/03/14 03:56:33;;;;;;;7.25;1.08;;;9.40;99.90;;;;;;4972953;28;20025;-78
2023/03/14 03:58:58;;;;;;;1.77;0.30;;;9.40;99.90;;;;;;4958342;28;20379;-78
2023/03/14 04:01:24;;;;;;;4.30;0.82;;;9.40;99.90;;;;;;4958140;28;20026;-78
2023/03/14 04:03:49;;;;;;;2.63;0.80;;;9.40;99.90;;;;;;4966116;28;20715;-78
2023/03/14 04:06:15;;;;;;;3.22;0.80;;;9.40;99.90;;;;;;4955274;28;20034;-78
2023/03/14 04:08:41;;;;;;;5.15;0.82;;;9.40;99.90;;;;;;4957044;28;20040;-78
2023/03/14 04:11:06;;;;;;;3.25;0.47;;;9.40;99.90;;;;;;4948637;28;20091;-78
2023/03/14 04:13:32;;;;;;;0.38;0.22;;;9.40;99.90;;;;;;4961838;28;20385;-79
2023/03/14 04:15:58;;;;;;;6.85;0.80;;;9.30;99.90;;;;;;4964053;28;20034;-78
2023/03/14 04:18:24;;;;;;;1.35;0.40;;;9.40;99.90;;;;;;4951609;28;20628;-78
2023/03/14 04:20:53;;;;;;;4.75;0.47;;;9.30;99.90;;;;;;4952039;28;20031;-77
2023/03/14 04:23:19;;;;;;;4.40;0.80;;;9.30;99.90;;;;;;4956150;28;20398;-78
2023/03/14 04:25:45;;;;;;;1.58;0.70;;;9.30;99.90;;;;;;4959159;28;20041;-78
2023/03/14 04:28:10;;;;;;;2.58;0.30;;;9.30;99.90;;;;;;4969466;28;20145;-77
2023/03/14 04:30:36;;;;;;;1.45;0.63;;;9.30;99.90;;;;;;4956517;28;20084;-78
2023/03/14 04:33:01;;;;;;;4.30;0.75;;;9.20;99.90;;;;;;4970770;28;20045;-78
2023/03/14 04:35:27;;;;;;;3.50;0.68;;;9.20;99.90;;;;;;4975908;28;20026;-77
2023/03/14 04:37:52;;;;;;;2.45;0.43;;;9.10;99.90;;;;;;4971700;28;20042;-77
2023/03/14 04:40:18;;;;;;;1.88;0.47;;;9.00;99.90;;;;;;4965336;28;20040;-78
2023/03/14 04:42:43;;;;;;;5.93;0.80;;;9.00;99.90;;;;;;4968239;28;20125;-78
2023/03/14 04:45:09;;;;;;;6.85;0.60;;;9.00;99.90;;;;;;4953947;28;20322;-77
2023/03/14 04:47:35;;;;;;;2.50;0.50;;;9.00;99.90;;;;;;4962275;28;20079;-78
2023/03/14 04:50:00;;;;;;;3.72;0.30;;;9.10;99.90;;;;;;4952933;28;20069;-77
2023/03/14 04:52:26;;;;;;;1.45;0.20;;;8.90;99.90;;;;;;4982968;28;20057;-78
2023/03/14 04:54:51;;;;;;;2.53;0.30;;;9.00;99.90;;;;;;4956644;28;20162;-78
2023/03/14 04:57:17;;;;;;;2.47;0.25;;;8.90;99.90;;;;;;4970890;28;20120;-78
2023/03/14 04:59:43;;;;;;;1.45;0.30;;;8.90;99.90;;;;;;4969570;28;20085;-77
2023/03/14 05:02:08;;;;;;;0.03;0.03;;;8.90;99.90;;;;;;4975513;28;20038;-77
2023/03/14 05:04:34;;;;;;;0.90;0.05;;;8.90;99.90;;;;;;4955496;28;20636;-79
2023/03/14 05:07:00;;;;;;;2.20;0.32;;;8.80;99.90;;;;;;4971337;28;20083;-77
2023/03/14 05:09:25;;;;;;;1.35;0.28;;;8.80;99.90;;;;;;4959233;28;20364;-77
2023/03/14 05:11:51;;;;;;;1.40;0.00;;;8.80;99.90;;;;;;4976597;28;20045;-78
2023/03/14 05:14:16;;;;;;;0.55;0.20;;;8.80;99.90;;;;;;4966021;28;20849;-78
2023/03/14 05:16:42;;;;;;;0.10;0.10;;;8.80;99.90;;;;;;4945443;28;20026;-77
2023/03/14 05:19:08;;;;;;;1.70;0.20;;;8.80;99.90;;;;;;4952417;28;20082;-77
2023/03/14 05:21:33;;;;;;;0.00;0.00;;;8.80;99.90;;;;;;4958648;28;20022;-78
2023/03/14 05:23:59;;;;;;;1.92;0.10;;;8.70;99.90;;;;;;4970272;28;20021;-77
2023/03/14 05:26:24;;;;;;;1.75;0.10;;;8.70;99.90;;;;;;4957749;28;20026;-78
2023/03/14 05:28:50;;;;;;;1.70;0.20;;;8.70;99.90;;;;;;4950914;28;20623;-78
2023/03/14 05:31:15;;;;;;;0.77;0.10;;;8.80;99.90;;;;;;4954905;28;20025;-78
2023/03/14 05:33:41;;;;;;;0.88;0.20;;;8.70;99.90;;;;;;4971176;28;20053;-78
2023/03/14 05:36:07;;;;;;;0.93;0.30;;;8.70;99.90;;;;;;4959172;28;20030;-78
2023/03/14 05:38:33;;;;;;;0.73;0.10;;;8.60;99.90;;;;;;4983832;28;20125;-78
2023/03/14 05:40:58;;;;;;;1.63;0.20;;;8.60;99.90;;;;;;4951249;28;20700;-78
2023/03/14 05:43:24;;;;;;;0.22;0.22;;;8.60;99.90;;;;;;4984619;28;20095;-77
2023/03/14 05:45:49;;;;;;;0.77;0.30;;;8.80;99.90;;;;;;4955780;28;20064;-76
2023/03/14 05:48:16;;;;;;;2.70;0.40;;;8.80;99.90;;;;;;4966332;28;20039;-78
2023/03/14 05:50:42;;;;;;;1.02;0.28;;;8.80;99.90;;;;;;4953816;28;20038;-78
2023/03/14 05:53:07;;;;;;;2.45;0.30;;;8.80;99.90;;;;;;4966701;28;20029;-78
2023/03/14 05:55:33;;;;;;;0.90;0.52;;;8.80;99.90;;;;;;4957223;28;20030;-79
2023/03/14 05:57:58;;;;;;;0.70;0.50;;;8.80;99.90;;;;;;4953879;28;20030;-77
2023/03/14 06:00:24;;;;;;;1.55;0.30;;;8.80;99.90;;;;;;4973183;28;20038;-77
2023/03/14 06:02:49;;;;;;;1.58;0.57;;;8.80;99.90;;;;;;4957019;28;20526;-77
2023/03/14 06:05:15;;;;;;;2.97;0.70;;;8.80;99.90;;;;;;4972837;28;20470;-77
2023/03/14 06:07:41;;;;;;;5.03;0.75;;;8.80;99.90;;;;;;4956396;28;20465;-77
2023/03/14 06:10:06;;;;;;;4.72;1.10;;;8.80;99.90;;;;;;4953350;28;20034;-77
2023/03/14 06:12:32;;;;;;;3.28;1.25;;;8.80;99.90;;;;;;4970750;28;20176;-77
2023/03/14 06:14:58;;;;;;;1.75;0.63;;;8.90;99.90;;;;;;4974117;28;20481;-76
2023/03/14 06:17:23;;;;;;;2.40;0.90;;;8.90;99.90;;;;;;4971787;28;20037;-77
2023/03/14 06:19:49;;;;;;;2.95;0.68;;;8.90;99.90;;;;;;4965852;28;20062;-78
2023/03/14 06:22:14;;;;;;;3.97;1.05;;;8.90;99.90;;;;;;4957419;28;20034;-81
2023/03/14 06:24:40;;;;;;;3.60;1.10;;;8.90;99.90;;;;;;4998745;28;20093;-84
2023/03/14 06:27:05;;;;;;;3.78;0.80;;;8.90;99.90;;;;;;4965499;28;20030;-79
2023/03/14 06:29:31;;;;;;;3.50;0.85;;;8.90;99.90;;;;;;4977523;28;20036;-82
2023/03/14 06:31:57;;;;;;;3.10;0.77;;;8.90;99.90;;;;;;4961555;28;20086;-83
2023/03/14 06:34:23;;;;;;;2.67;1.02;;;8.90;99.90;;;;;;4980992;28;20556;-83
2023/03/14 06:36:49;;;;;;;4.40;0.85;;;9.00;99.90;;;;;;4959044;28;20042;-84
2023/03/14 06:39:15;;;;;;;2.30;0.80;;;9.00;99.90;;;;;;4961501;28;20096;-82
2023/03/14 06:41:40;;;;;;;1.60;0.63;;;9.00;99.90;;;;;;4955843;28;20041;-82
2023/03/14 06:44:06;;;;;;;3.20;1.00;;;9.00;99.90;;;;;;4950844;28;20038;-82
2023/03/14 06:46:31;;;;;;;2.70;1.02;;;9.00;99.90;;;;;;4963010;28;20080;-83
2023/03/14 06:48:57;;;;;;;2.13;0.60;;;9.00;99.90;;;;;;4966597;28;20021;-83
2023/03/14 06:51:22;;;;;;;1.45;0.57;;;9.00;99.90;;;;;;4978620;28;20026;-83
2023/03/14 06:53:48;;;;;;;4.15;0.77;;;9.10;99.90;;;;;;4957631;28;20030;-82
2023/03/14 06:56:14;;;;;;;1.15;0.32;;;9.10;99.90;;;;;;4976310;28;20042;-80
2023/03/14 06:58:39;;;;;;;3.00;0.45;;;9.10;99.90;;;;;;4978021;28;20439;-80
2023/03/14 07:01:05;;;;;;;4.93;0.50;;;9.20;99.90;;;;;;4960892;28;20026;-81
2023/03/14 07:03:31;;;;;;;0.20;0.20;;;9.20;99.90;;;;;;4988863;28;20034;-79
2023/03/14 07:05:57;;;;;;;6.10;0.40;;;9.20;99.90;;;;;;4955488;28;20512;-80
2023/03/14 07:08:22;;;;;;;0.43;0.30;;;9.20;99.90;;;;;;4955996;28;20026;-79
2023/03/14 07:10:48;;;;;;;0.65;0.30;;;9.20;99.90;;;;;;4973208;28;20117;-80
2023/03/14 07:13:13;;;;;;;2.17;0.32;;;9.20;99.90;;;;;;4987701;28;20034;-79
2023/03/14 07:15:39;;;;;;;0.65;0.22;;;9.20;99.90;;;;;;4955275;28;20156;-80
2023/03/14 07:18:04;;;;;;;0.57;0.30;;;9.30;99.90;;;;;;4977657;28;20034;-81
2023/03/14 07:20:32;;;;;;;1.13;0.47;;;9.30;99.90;;;;;;4983241;28;20025;-83
2023/03/14 07:22:59;;;;;;;0.40;0.20;;;9.30;99.90;;;;;;4965659;28;20040;-82
2023/03/14 07:25:25;;;;;;;0.47;0.30;;;9.40;99.90;;;;;;4979855;28;20090;-80
2023/03/14 07:27:50;;;;;;;1.90;0.50;;;9.40;99.90;;;;;;4958696;28;20126;-82
2023/03/14 07:30:16;;;;;;;0.60;0.25;;;9.30;99.90;;;;;;4977503;28;20057;-82
2023/03/14 07:32:41;;;;;;;0.47;0.20;;;9.40;99.90;;;;;;4963083;28;20080;-82
2023/03/14 07:35:07;;;;;;;1.35;0.30;;;9.40;99.90;;;;;;4992165;28;20117;-82
2023/03/14 07:37:33;;;;;;;0.35;0.30;;;9.50;99.90;;;;;;4972220;28;20117;-82
2023/03/14 07:39:59;;;;;;;0.60;0.32;;;9.50;99.90;;;;;;4990257;28;20110;-81
2023/03/14 07:42:24;;;;;;;0.60;0.30;;;9.50;99.90;;;;;;4961667;28;20038;-82
2023/03/14 07:44:50;;;;;;;0.38;0.10;;;9.50;99.90;;;;;;4977111;28;20129;-82
2023/03/14 07:47:15;;;;;;;0.25;0.15;;;9.60;99.90;;;;;;4972130;28;20027;-82
2023/03/14 07:49:41;;;;;;;0.93;0.30;;;9.60;99.90;;;;;;4958415;28;20042;-81
2023/03/14 07:52:06;;;;;;;0.00;0.00;;;9.50;99.90;;;;;;4959417;28;20026;-81
2023/03/14 07:54:32;;;;;;;0.68;0.30;;;9.60;99.90;;;;;;4990607;28;20025;-80
2023/03/14 07:57:01;;;;;;;0.43;0.10;;;9.60;99.90;;;;;;4970597;28;20104;-80
2023/03/14 07:59:27;;;;;;;0.52;0.20;;;9.60;99.90;;;;;;5002689;28;20040;-80
2023/03/14 08:01:52;;;;;;;0.38;0.35;;;9.60;99.90;;;;;;4944829;28;20094;-81
2023/03/14 08:04:18;;;;;;;0.75;0.22;;;9.60;99.90;;;;;;4972614;28;20084;-80
2023/03/14 08:06:44;;;;;;;0.28;0.20;;;9.70;99.90;;;;;;4959209;28;20043;-80
2023/03/14 08:09:09;;;;;;;0.63;0.50;;;9.70;99.90;;;;;;4958929;28;20022;-80
2023/03/14 08:11:35;;;;;;;0.10;0.10;;;9.80;99.90;;;;;;4986843;28;20120;-81
2023/03/14 08:14:00;;;;;;;0.60;0.40;;;9.80;99.90;;;;;;4956215;28;20061;-81
2023/03/14 08:16:26;;;;;;;0.70;0.38;;;9.70;99.90;;;;;;4967953;28;20022;-81
2023/03/14 08:18:51;;;;;;;1.17;0.35;;;9.80;99.90;;;;;;4976846;28;20470;-80
2023/03/14 08:21:17;;;;;;;0.90;0.40;;;9.90;99.90;;;;;;4961136;28;20038;-80
2023/03/14 08:23:42;;;;;;;1.75;0.50;;;9.90;99.90;;;;;;4957192;28;20050;-80
2023/03/14 08:26:08;;;;;;;1.38;0.70;;;10.00;99.90;;;;;;4959262;28;20093;-80
2023/03/14 08:28:34;;;;;;;0.50;0.30;;;10.00;99.90;;;;;;4961285;28;20122;-80
2023/03/14 08:31:00;;;;;;;0.28;0.20;;;10.10;99.90;;;;;;4971141;28;20406;-80
2023/03/14 08:33:26;;;;;;;0.55;0.30;;;10.10;99.90;;;;;;5006849;28;20041;-79
2023/03/14 08:35:55;;;;;;;0.98;0.73;;;10.10;99.90;;;;;;4991096;28;20038;-80
2023/03/14 08:38:21;;;;;;;0.32;0.28;;;10.10;99.90;;;;;;4959372;28;20390;-81
2023/03/14 08:40:46;;;;;;;0.40;0.40;;;10.20;99.90;;;;;;4955766;28;20039;-81
2023/03/14 08:43:12;;;;;;;0.70;0.50;;;10.20;99.90;;;;;;4971473;28;20542;-81
2023/03/14 08:45:37;;;;;;;0.25;0.10;;;10.30;99.90;;;;;;4952347;28;20632;-81
2023/03/14 08:48:03;;;;;;;0.45;0.32;;;10.30;99.90;;;;;;4962529;28;20415;-83
2023/03/14 08:50:29;;;;;;;0.75;0.47;;;10.30;99.90;;;;;;4955252;28;20458;-80
2023/03/14 08:52:54;;;;;;;0.38;0.38;;;10.30;99.90;;;;;;4988601;28;20038;-80
2023/03/14 08:55:20;;;;;;;0.77;0.52;;;10.30;99.90;;;;;;4956597;28;20026;-81
2023/03/14 08:57:46;;;;;;;2.45;0.60;;;10.30;99.90;;;;;;4978224;28;20038;-81
2023/03/14 09:00:15;;;;;;;2.90;0.75;;;10.30;99.90;;;;;;4956588;28;20041;-81
2023/03/14 09:02:41;;;;;;;1.95;0.90;;;10.30;99.90;;;;;;4976122;28;20104;-80
2023/03/14 09:05:07;;;;;;;3.38;1.00;;;10.30;99.90;;;;;;4961453;28;20034;-80
2023/03/14 09:07:33;;;;;;;0.80;0.40;;;10.20;99.90;;;;;;4975084;28;20113;-80
2023/03/14 09:09:59;;;;;;;3.63;0.55;;;10.20;99.90;;;;;;4968013;28;20165;-80
2023/03/14 09:12:24;;;;;;;0.93;0.50;;;10.20;99.90;;;;;;4958309;28;20034;-80
2023/03/14 09:14:50;;;;;;;0.32;0.32;;;10.10;99.90;;;;;;4970375;28;20042;-80
2023/03/14 09:17:15;;;;;;;0.30;0.22;;;10.10;99.90;;;;;;4952584;28;20126;-81
2023/03/14 09:19:41;;;;;;;0.28;0.28;;;10.00;99.90;;;;;;4973276;28;20061;-81
2023/03/14 09:22:06;;;;;;;2.00;0.28;;;10.00;99.90;;;;;;4960044;28;20040;-81
2023/03/14 09:24:32;;;;;;;0.95;0.40;;;9.90;99.90;;;;;;4975164;28;20026;-81
2023/03/14 09:26:58;;;;;;;0.73;0.50;;;9.90;99.90;;;;;;4976535;28;20045;-82
2023/03/14 09:29:24;;;;;;;0.40;0.30;;;9.90;99.90;;;;;;4991376;28;20036;-80
2023/03/14 09:31:49;;;;;;;2.22;0.55;;;9.90;99.90;;;;;;4967861;28;20038;-81
2023/03/14 09:34:15;;;;;;;1.15;0.30;;;9.80;99.90;;;;;;4963964;28;20040;-81
2023/03/14 09:36:43;;;;;;;2.55;0.57;;;9.70;99.90;;;;;;4972148;28;20034;-81
2023/03/14 09:39:09;;;;;;;3.80;0.55;;;9.60;99.90;;;;;;4958567;28;20041;-82
2023/03/14 09:41:40;;;;;;;0.60;0.57;;;9.60;99.90;;;;;;4961552;28;20104;-81
2023/03/14 09:44:20;;;;;;;0.55;0.50;;;9.60;99.90;;;;;;4976126;28;20030;-80
2023/03/14 09:46:47;;;;;;;7.60;0.82;;;9.50;99.90;;;;;;4965960;28;20049;-81
2023/03/14 09:49:25;;;;;;;2.05;1.00;;;9.40;99.90;;;;;;4972862;28;20502;-80
2023/03/14 09:51:52;;;;;;;4.20;1.15;;;9.50;99.90;;;;;;4980967;28;20414;-82
2023/03/14 09:54:43;;;;;;;1.27;1.05;;;9.40;99.90;;;;;;4958488;28;20034;-81
2023/03/14 09:57:12;;;;;;;2.25;1.40;;;9.50;99.90;;;;;;4984690;28;20041;-80
2023/03/14 09:59:38;;;;;;;6.60;1.70;;;9.40;99.90;;;;;;4976487;28;20058;-80
2023/03/14 10:02:21;;;;;;;1.48;1.38;;;9.40;99.90;;;;;;4966183;28;20068;-81
2023/03/14 10:04:47;;;;;;;2.95;1.25;;;9.30;99.90;;;;;;4986264;28;20118;-82
2023/03/14 10:07:25;;;;;;;2.50;1.95;;;9.30;99.90;;;;;;4967978;28;20085;-80
2023/03/14 10:09:51;;;;;;;1.35;1.10;;;9.30;99.90;;;;;;4964072;28;20038;-80
2023/03/14 10:12:17;;;;;;;1.33;1.10;;;9.20;99.90;;;;;;4972775;28;20026;-81
2023/03/14 10:14:51;;;;;;;2.10;1.13;;;9.10;99.90;;;;;;4955871;28;20031;-81
2023/03/14 10:17:17;;;;;;;1.70;1.08;;;9.00;99.90;;;;;;4963548;28;20035;-81
2023/03/14 10:19:53;;;;;;;2.55;0.75;;;8.90;99.90;;;;;;4978041;28;20030;-81
2023/03/14 10:22:18;;;;;;;7.57;1.10;;;8.90;99.90;;;;;;4997790;28;20057;-80
2023/03/14 10:24:52;;;;;;;3.60;0.60;;;8.80;99.90;;;;;;4978398;28;20094;-81
2023/03/14 10:27:19;;;;;;;0.82;0.43;;;8.80;99.90;;;;;;4974489;28;20148;-80
2023/03/14 10:29:59;;;;;;;1.13;0.50;;;8.80;99.90;;;;;;4960066;28;20042;-81
2023/03/14 10:32:36;;;;;;;2.38;0.70;;;8.70;99.90;;;;;;4963643;28;20512;-80
2023/03/14 10:35:15;;;;;;;3.15;1.00;;;8.80;99.90;;;;;;4964139;28;20103;-80
2023/03/14 10:37:56;;;;;;;0.85;0.60;;;8.80;99.90;;;;;;4993832;28;20502;-81
2023/03/14 10:40:26;;;;;;;1.25;0.75;;;8.80;99.90;;;;;;4977840;28;20192;-81
2023/03/14 10:42:52;;;;;;;1.30;0.90;;;8.70;99.90;;;;;;4953821;28;20469;-80
2023/03/14 10:45:38;;;;;;;1.25;0.70;;;8.70;99.90;;;;;;4963751;28;20045;-81
2023/03/14 10:48:20;;;;;;;2.72;0.70;;;8.80;99.90;;;;;;4976215;28;20045;-80
2023/03/14 10:51:03;;;;;;;2.75;0.57;;;8.60;99.90;;;;;;4975066;28;20041;-80
2023/03/14 10:53:34;;;;;;;3.30;0.80;;;8.60;99.90;;;;;;4986440;28;20041;-81
2023/03/14 10:56:01;;;;;;;3.63;0.80;;;8.60;99.90;;;;;;4968421;28;20572;-80
2023/03/14 10:58:28;;;;;;;0.73;0.40;;;8.70;99.90;;;;;;4961492;28;20069;-80
2023/03/14 11:01:32;;;;;;;3.03;0.57;;;8.50;99.90;;;;;;4978863;28;20079;-81
2023/03/14 11:04:06;;;;;;;2.85;0.55;;;8.60;99.90;;;;;;4988732;28;20401;-81
2023/03/14 11:06:44;;;;;;;1.05;0.50;;;8.50;99.90;;;;;;4974690;28;20026;-80
2023/03/14 11:09:18;;;;;;;2.50;0.73;;;8.50;99.90;;;;;;4960738;28;20409;-81
2023/03/14 11:11:46;;;;;;;1.20;1.00;;;8.40;99.90;;;;;;4977490;28;20042;-81
2023/03/14 11:14:36;;;;;;;2.60;0.82;;;8.40;99.90;;;;;;4973897;28;20049;-81
2023/03/14 11:17:04;;;;;;;0.93;0.50;;;8.30;99.90;;;;;;4973496;28;20050;-81
2023/03/14 11:19:42;;;;;;;2.65;0.80;;;8.20;99.90;;;;;;5007072;28;20490;-81
2023/03/14 11:22:47;;;;;;;1.50;0.60;;;8.20;99.90;;;;;;4985578;28;20398;-81
2023/03/14 11:25:19;;;;;;;3.75;1.05;;;8.40;99.90;;;;;;4954002;28;20488;-81
2023/03/14 11:27:56;;;;;;;2.40;0.88;;;8.50;99.90;;;;;;4992213;28;20565;-81
2023/03/14 11:30:27;;;;;;;4.30;1.10;;;8.50;99.90;;;;;;4970689;28;20029;-82
2023/03/14 11:32:59;;;;;;;2.00;0.85;;;8.50;99.90;;;;;;4972786;28;20046;-81
2023/03/14 11:35:28;;;;;;;1.77;0.65;;;8.30;99.90;;;;;;4996549;28;20030;-81
2023/03/14 11:38:18;;;;;;;2.38;0.70;;;8.20;99.90;;;;;;4961599;28;20418;-80
2023/03/14 11:40:43;;;;;;;1.77;1.05;;;8.00;99.90;;;;;;4985538;28;20374;-81
2023/03/14 11:43:16;;;;;;;3.33;0.70;;;8.10;99.90;;;;;;4953557;28;20120;-82
2023/03/14 11:45:42;;;;;;;2.17;1.10;;;8.00;99.90;;;;;;4978093;28;20045;-81
2023/03/14 11:48:39;;;;;;;4.22;1.00;;;8.00;99.90;;;;;;4968643;28;20038;-81
2023/03/14 11:51:11;;;;;;;;;;;7.90;99.90;;;;;;4971888;28;20529;-81
2023/03/14 11:53:47;;;;;;;0.90;0.57;;;7.80;99.90;;;;;;4981620;28;19917;-82
2023/03/14 11:56:36;;;;;;;2.30;0.63;;;7.80;99.90;;;;;;4951874;28;20474;-83
2023/03/14 11:59:26;;;;;;;2.35;0.60;;;7.90;99.90;;;;;;4973583;28;20036;-81
2023/03/14 12:02:03;;;;;;;1.52;0.43;;;8.00;99.90;;;;;;4962120;28;20065;-82
2023/03/14 12:04:32;;;;;;;2.38;0.80;;;7.80;99.90;;;;;;4952434;28;20034;-80
2023/03/14 12:06:57;;;;;;;2.50;0.70;;;7.70;99.90;;;;;;4982818;28;20613;-80
2023/03/14 12:09:23;;;;;;;2.42;0.70;;;7.50;99.90;;;;;;4943120;28;20042;-80
2023/03/14 12:12:12;;;;;;;3.30;1.10;;;7.50;99.90;;;;;;4974905;28;20026;-80
2023/03/14 12:14:57;;;;;;;3.47;1.10;;;7.50;99.90;;;;;;4959205;28;20128;-81
2023/03/14 12:17:23;;;;;;;3.65;1.00;;;7.40;99.90;;;;;;4952564;28;20026;-80
2023/03/14 12:20:05;;;;;;;5.93;1.30;;;7.40;99.90;;;;;;4962930;28;20767;-80
2023/03/14 12:22:45;;;;;;;3.17;1.15;;;7.40;99.90;;;;;;4982928;28;20128;-79
2023/03/14 12:25:11;;;;;;;5.45;1.42;;;7.40;99.90;;;;;;4937252;28;20023;-80
2023/03/14 12:27:55;;;;;;;6.20;1.20;;;7.50;99.90;;;;;;4967153;28;20557;-80
2023/03/14 12:30:34;;;;;;;3.83;0.82;;;7.70;99.90;;;;;;4989953;28;20030;-80
2023/03/14 12:33:24;;;;;;;10.77;1.17;;;7.90;99.90;;;;;;4970817;28;20056;-80
2023/03/14 12:35:51;;;;;;;5.03;1.10;;;8.10;99.90;;;;;;4963289;28;20061;-80
2023/03/14 12:38:40;;;;;;;3.72;1.15;;;8.30;99.90;;;;;;4966590;28;20030;-80
2023/03/14 12:41:19;;;;;;;9.05;1.05;;;8.30;99.90;;;;;;4988342;28;20022;-81
2023/03/14 12:43:45;;;;;;;6.20;1.02;;;8.50;99.90;;;;;;4968548;28;20115;-79
2023/03/14 12:46:33;;;;;;;11.48;1.38;;;8.60;99.90;;;;;;4956241;28;20435;-80
2023/03/14 12:49:02;;;;;;;4.03;0.85;;;8.60;99.90;;;;;;4964108;28;20354;-80
2023/03/14 12:51:38;;;;;;;5.22;1.00;;;8.40;99.90;;;;;;4994938;28;20569;-80
2023/03/14 12:54:27;;;;;;;4.18;1.20;;;8.60;99.90;;;;;;4974970;28;20030;-79
2023/03/14 12:56:59;;;;;;;5.03;1.45;;;8.50;99.90;;;;;;4961439;28;20514;-80
2023/03/14 12:59:47;;;;;;;6.07;0.82;;;8.40;99.90;;;;;;4987500;28;20072;-80
2023/03/14 13:02:35;;;;;;;5.20;1.33;;;7.90;99.90;;;;;;4958236;28;20065;-83
2023/03/14 13:05:04;;;;;;;10.63;2.05;;;7.90;99.90;;;;;;4981567;28;24627;-80